sensor_id;sensor_type;location;lat;lon;timestamp;P1;durP1;ratioP1;P2;durP2;ratioP2
67514;SDS011;60646;55.802;37.032;2022-09-09T00:01:58;4.40;;;1.70;;
67514;SDS011;60646;55.802;37.032;2022-09-09T00:04:30;1.95;;;1.50;;
67514;SDS011;60646;55.802;37.032;2022-09-09T00:07:04;1.77;;;1.40;;
67514;SDS011;60646;55.802;37.032;2022-09-09T00:12:21;3.40;;;1.23;;
67514;SDS011;60646;55.802;37.032;2022-09-09T00:14:53;1.98;;;1.27;;
67514;SDS011;60646;55.802;37.032;2022-09-09T00:20:13;2.15;;;1.42;;
67514;SDS011;60646;55.802;37.032;2022-09-09T00:22:48;4.45;;;1.73;;
67514;SDS011;60646;55.802;37.032;2022-09-09T00:25:26;1.85;;;1.55;;
67514;SDS011;60646;55.802;37.032;2022-09-09T00:27:58;2.38;;;1.63;;
67514;SDS011;60646;55.802;37.032;2022-09-09T00:30:29;3.80;;;1.67;;
67514;SDS011;60646;55.802;37.032;2022-09-09T00:33:00;2.40;;;1.50;;
67514;SDS011;60646;55.802;37.032;2022-09-09T00:35:32;2.00;;;1.30;;
67514;SDS011;60646;55.802;37.032;2022-09-09T00:38:02;2.67;;;1.42;;
67514;SDS011;60646;55.802;37.032;2022-09-09T00:40:50;1.73;;;1.52;;
67514;SDS011;60646;55.802;37.032;2022-09-09T00:47:01;1.50;;;1.13;;
67514;SDS011;60646;55.802;37.032;2022-09-09T00:49:09;1.45;;;1.05;;
67514;SDS011;60646;55.802;37.032;2022-09-09T00:54:31;1.63;;;1.20;;
67514;SDS011;60646;55.802;37.032;2022-09-09T01:02:46;2.33;;;1.40;;
67514;SDS011;60646;55.802;37.032;2022-09-09T01:05:37;1.85;;;1.30;;
67514;SDS011;60646;55.802;37.032;2022-09-09T01:10:49;1.45;;;1.10;;
67514;SDS011;60646;55.802;37.032;2022-09-09T01:13:27;1.95;;;1.30;;
67514;SDS011;60646;55.802;37.032;2022-09-09T01:16:03;1.42;;;1.20;;
67514;SDS011;60646;55.802;37.032;2022-09-09T01:18:36;1.55;;;1.10;;
67514;SDS011;60646;55.802;37.032;2022-09-09T01:26:25;1.27;;;1.00;;
67514;SDS011;60646;55.802;37.032;2022-09-09T01:28:59;2.05;;;1.15;;
67514;SDS011;60646;55.802;37.032;2022-09-09T01:34:25;2.22;;;1.13;;
67514;SDS011;60646;55.802;37.032;2022-09-09T01:39:39;1.98;;;1.27;;
67514;SDS011;60646;55.802;37.032;2022-09-09T01:42:12;1.67;;;1.05;;
67514;SDS011;60646;55.802;37.032;2022-09-09T01:44:40;3.13;;;1.45;;
67514;SDS011;60646;55.802;37.032;2022-09-09T01:47:06;1.55;;;0.90;;
67514;SDS011;60646;55.802;37.032;2022-09-09T01:49:34;1.50;;;0.98;;
67514;SDS011;60646;55.802;37.032;2022-09-09T01:52:08;1.63;;;1.13;;
67514;SDS011;60646;55.802;37.032;2022-09-09T01:54:36;2.22;;;1.00;;
67514;SDS011;60646;55.802;37.032;2022-09-09T01:57:19;1.65;;;1.05;;
67514;SDS011;60646;55.802;37.032;2022-09-09T02:00:07;1.60;;;1.17;;
67514;SDS011;60646;55.802;37.032;2022-09-09T02:09:19;1.13;;;1.00;;
67514;SDS011;60646;55.802;37.032;2022-09-09T02:11:50;1.30;;;0.90;;
67514;SDS011;60646;55.802;37.032;2022-09-09T02:14:50;1.90;;;1.10;;
67514;SDS011;60646;55.802;37.032;2022-09-09T02:17:26;1.63;;;1.05;;
67514;SDS011;60646;55.802;37.032;2022-09-09T02:20:06;16.33;;;2.38;;
67514;SDS011;60646;55.802;37.032;2022-09-09T02:22:54;1.92;;;0.95;;
67514;SDS011;60646;55.802;37.032;2022-09-09T02:25:23;3.42;;;1.10;;
67514;SDS011;60646;55.802;37.032;2022-09-09T02:27:57;2.60;;;1.27;;
67514;SDS011;60646;55.802;37.032;2022-09-09T02:30:27;1.17;;;1.00;;
67514;SDS011;60646;55.802;37.032;2022-09-09T02:32:57;1.55;;;1.00;;
67514;SDS011;60646;55.802;37.032;2022-09-09T02:35:47;4.30;;;1.02;;
67514;SDS011;60646;55.802;37.032;2022-09-09T02:38:18;1.40;;;0.90;;
67514;SDS011;60646;55.802;37.032;2022-09-09T02:40:55;1.80;;;1.10;;
67514;SDS011;60646;55.802;37.032;2022-09-09T02:43:22;1.55;;;0.95;;
67514;SDS011;60646;55.802;37.032;2022-09-09T02:45:51;1.92;;;1.00;;
67514;SDS011;60646;55.802;37.032;2022-09-09T02:48:30;3.00;;;1.10;;
67514;SDS011;60646;55.802;37.032;2022-09-09T02:51:07;1.38;;;0.95;;
67514;SDS011;60646;55.802;37.032;2022-09-09T02:53:43;1.38;;;0.90;;
67514;SDS011;60646;55.802;37.032;2022-09-09T02:56:16;1.83;;;1.20;;
67514;SDS011;60646;55.802;37.032;2022-09-09T02:59:04;1.70;;;1.10;;
67514;SDS011;60646;55.802;37.032;2022-09-09T03:01:32;2.03;;;1.05;;
67514;SDS011;60646;55.802;37.032;2022-09-09T03:03:58;1.80;;;1.08;;
67514;SDS011;60646;55.802;37.032;2022-09-09T03:06:24;1.50;;;0.82;;
67514;SDS011;60646;55.802;37.032;2022-09-09T03:09:00;0.90;;;0.80;;
67514;SDS011;60646;55.802;37.032;2022-09-09T03:11:28;1.60;;;1.05;;
67514;SDS011;60646;55.802;37.032;2022-09-09T03:13:54;1.30;;;1.02;;
67514;SDS011;60646;55.802;37.032;2022-09-09T03:16:23;2.58;;;1.00;;
67514;SDS011;60646;55.802;37.032;2022-09-09T03:18:51;1.33;;;1.08;;
67514;SDS011;60646;55.802;37.032;2022-09-09T03:21:18;2.33;;;1.00;;
67514;SDS011;60646;55.802;37.032;2022-09-09T03:23:44;2.08;;;0.90;;
67514;SDS011;60646;55.802;37.032;2022-09-09T03:26:10;1.73;;;1.15;;
67514;SDS011;60646;55.802;37.032;2022-09-09T03:28:43;1.00;;;0.85;;
67514;SDS011;60646;55.802;37.032;2022-09-09T03:31:11;1.13;;;0.90;;
67514;SDS011;60646;55.802;37.032;2022-09-09T03:33:40;1.40;;;0.85;;
67514;SDS011;60646;55.802;37.032;2022-09-09T03:36:09;1.00;;;0.90;;
67514;SDS011;60646;55.802;37.032;2022-09-09T03:38:36;1.17;;;0.95;;
67514;SDS011;60646;55.802;37.032;2022-09-09T03:41:02;1.70;;;1.08;;
67514;SDS011;60646;55.802;37.032;2022-09-09T03:43:29;1.27;;;1.02;;
67514;SDS011;60646;55.802;37.032;2022-09-09T03:45:57;1.85;;;1.00;;
67514;SDS011;60646;55.802;37.032;2022-09-09T03:48:24;4.85;;;1.23;;
67514;SDS011;60646;55.802;37.032;2022-09-09T03:50:52;1.42;;;1.00;;
67514;SDS011;60646;55.802;37.032;2022-09-09T03:53:20;1.52;;;1.08;;
67514;SDS011;60646;55.802;37.032;2022-09-09T03:55:48;4.60;;;1.13;;
67514;SDS011;60646;55.802;37.032;2022-09-09T03:58:35;1.85;;;0.82;;
67514;SDS011;60646;55.802;37.032;2022-09-09T04:01:07;1.52;;;1.08;;
67514;SDS011;60646;55.802;37.032;2022-09-09T04:03:53;1.38;;;0.95;;
67514;SDS011;60646;55.802;37.032;2022-09-09T04:06:20;1.52;;;1.00;;
67514;SDS011;60646;55.802;37.032;2022-09-09T04:08:47;1.25;;;0.88;;
67514;SDS011;60646;55.802;37.032;2022-09-09T04:11:14;3.53;;;0.90;;
67514;SDS011;60646;55.802;37.032;2022-09-09T04:13:41;1.45;;;1.02;;
67514;SDS011;60646;55.802;37.032;2022-09-09T04:16:10;1.05;;;0.88;;
67514;SDS011;60646;55.802;37.032;2022-09-09T04:18:39;1.50;;;1.05;;
67514;SDS011;60646;55.802;37.032;2022-09-09T04:21:06;1.13;;;0.98;;
67514;SDS011;60646;55.802;37.032;2022-09-09T04:23:34;1.75;;;1.20;;
67514;SDS011;60646;55.802;37.032;2022-09-09T04:26:02;2.75;;;1.00;;
67514;SDS011;60646;55.802;37.032;2022-09-09T04:28:32;1.02;;;0.85;;
67514;SDS011;60646;55.802;37.032;2022-09-09T04:31:05;1.65;;;0.90;;
67514;SDS011;60646;55.802;37.032;2022-09-09T04:33:33;1.63;;;1.25;;
67514;SDS011;60646;55.802;37.032;2022-09-09T04:35:58;1.38;;;0.95;;
67514;SDS011;60646;55.802;37.032;2022-09-09T04:38:26;2.17;;;1.00;;
67514;SDS011;60646;55.802;37.032;2022-09-09T04:40:53;1.85;;;1.00;;
67514;SDS011;60646;55.802;37.032;2022-09-09T04:43:20;1.63;;;1.17;;
67514;SDS011;60646;55.802;37.032;2022-09-09T04:45:49;1.55;;;0.90;;
67514;SDS011;60646;55.802;37.032;2022-09-09T04:48:17;2.55;;;1.08;;
67514;SDS011;60646;55.802;37.032;2022-09-09T04:50:43;2.50;;;1.10;;
67514;SDS011;60646;55.802;37.032;2022-09-09T04:53:28;1.50;;;1.00;;
67514;SDS011;60646;55.802;37.032;2022-09-09T04:56:07;1.55;;;1.13;;
67514;SDS011;60646;55.802;37.032;2022-09-09T04:58:46;1.63;;;1.00;;
67514;SDS011;60646;55.802;37.032;2022-09-09T05:01:18;1.73;;;0.90;;
67514;SDS011;60646;55.802;37.032;2022-09-09T05:03:48;1.33;;;0.80;;
67514;SDS011;60646;55.802;37.032;2022-09-09T05:06:18;1.40;;;0.88;;
67514;SDS011;60646;55.802;37.032;2022-09-09T05:08:48;1.15;;;0.90;;
67514;SDS011;60646;55.802;37.032;2022-09-09T05:11:35;2.75;;;0.90;;
67514;SDS011;60646;55.802;37.032;2022-09-09T05:14:10;1.10;;;0.80;;
67514;SDS011;60646;55.802;37.032;2022-09-09T05:16:37;1.23;;;0.88;;
67514;SDS011;60646;55.802;37.032;2022-09-09T05:19:03;1.95;;;0.90;;
67514;SDS011;60646;55.802;37.032;2022-09-09T05:21:44;1.42;;;1.00;;
67514;SDS011;60646;55.802;37.032;2022-09-09T05:24:54;1.50;;;1.10;;
67514;SDS011;60646;55.802;37.032;2022-09-09T05:27:28;1.20;;;0.90;;
67514;SDS011;60646;55.802;37.032;2022-09-09T05:30:03;0.82;;;0.73;;
67514;SDS011;60646;55.802;37.032;2022-09-09T05:32:50;2.58;;;0.90;;
67514;SDS011;60646;55.802;37.032;2022-09-09T05:36:22;1.00;;;0.70;;
67514;SDS011;60646;55.802;37.032;2022-09-09T05:38:54;0.55;;;0.52;;
67514;SDS011;60646;55.802;37.032;2022-09-09T05:41:21;1.52;;;0.77;;
67514;SDS011;60646;55.802;37.032;2022-09-09T05:43:49;2.25;;;0.80;;
67514;SDS011;60646;55.802;37.032;2022-09-09T05:46:24;0.95;;;0.60;;
67514;SDS011;60646;55.802;37.032;2022-09-09T05:48:52;0.85;;;0.60;;
67514;SDS011;60646;55.802;37.032;2022-09-09T05:51:25;1.23;;;0.77;;
67514;SDS011;60646;55.802;37.032;2022-09-09T05:53:53;1.33;;;0.70;;
67514;SDS011;60646;55.802;37.032;2022-09-09T05:56:28;1.40;;;0.80;;
67514;SDS011;60646;55.802;37.032;2022-09-09T05:58:56;1.27;;;0.70;;
67514;SDS011;60646;55.802;37.032;2022-09-09T06:01:33;1.05;;;0.60;;
67514;SDS011;60646;55.802;37.032;2022-09-09T06:04:01;0.88;;;0.70;;
67514;SDS011;60646;55.802;37.032;2022-09-09T06:06:31;2.88;;;0.85;;
67514;SDS011;60646;55.802;37.032;2022-09-09T06:09:03;2.75;;;0.95;;
67514;SDS011;60646;55.802;37.032;2022-09-09T06:11:39;1.95;;;0.70;;
67514;SDS011;60646;55.802;37.032;2022-09-09T06:14:05;1.02;;;0.60;;
67514;SDS011;60646;55.802;37.032;2022-09-09T06:16:32;0.45;;;0.40;;
67514;SDS011;60646;55.802;37.032;2022-09-09T06:18:58;0.55;;;0.40;;
67514;SDS011;60646;55.802;37.032;2022-09-09T06:21:27;0.40;;;0.40;;
67514;SDS011;60646;55.802;37.032;2022-09-09T06:24:09;0.45;;;0.35;;
67514;SDS011;60646;55.802;37.032;2022-09-09T06:26:36;0.82;;;0.40;;
67514;SDS011;60646;55.802;37.032;2022-09-09T06:29:06;1.27;;;0.50;;
67514;SDS011;60646;55.802;37.032;2022-09-09T06:31:34;0.35;;;0.30;;
67514;SDS011;60646;55.802;37.032;2022-09-09T06:34:21;0.85;;;0.47;;
67514;SDS011;60646;55.802;37.032;2022-09-09T06:36:51;1.40;;;0.30;;
67514;SDS011;60646;55.802;37.032;2022-09-09T06:39:17;0.30;;;0.30;;
67514;SDS011;60646;55.802;37.032;2022-09-09T06:41:44;0.47;;;0.43;;
67514;SDS011;60646;55.802;37.032;2022-09-09T06:44:36;0.30;;;0.30;;
67514;SDS011;60646;55.802;37.032;2022-09-09T06:47:05;3.58;;;0.43;;
67514;SDS011;60646;55.802;37.032;2022-09-09T06:49:32;0.50;;;0.40;;
67514;SDS011;60646;55.802;37.032;2022-09-09T06:51:59;0.85;;;0.40;;
67514;SDS011;60646;55.802;37.032;2022-09-09T06:54:26;3.22;;;0.50;;
67514;SDS011;60646;55.802;37.032;2022-09-09T06:56:53;3.17;;;0.40;;
67514;SDS011;60646;55.802;37.032;2022-09-09T06:59:22;0.35;;;0.35;;
67514;SDS011;60646;55.802;37.032;2022-09-09T07:01:49;0.60;;;0.43;;
67514;SDS011;60646;55.802;37.032;2022-09-09T07:04:18;3.00;;;0.43;;
67514;SDS011;60646;55.802;37.032;2022-09-09T07:06:45;1.65;;;0.40;;
67514;SDS011;60646;55.802;37.032;2022-09-09T07:09:18;0.80;;;0.50;;
67514;SDS011;60646;55.802;37.032;2022-09-09T07:11:48;3.40;;;0.50;;
67514;SDS011;60646;55.802;37.032;2022-09-09T07:14:35;0.40;;;0.40;;
67514;SDS011;60646;55.802;37.032;2022-09-09T07:17:05;1.92;;;0.30;;
67514;SDS011;60646;55.802;37.032;2022-09-09T07:19:35;2.03;;;0.55;;
67514;SDS011;60646;55.802;37.032;2022-09-09T07:22:03;0.82;;;0.52;;
67514;SDS011;60646;55.802;37.032;2022-09-09T07:24:29;0.68;;;0.50;;
67514;SDS011;60646;55.802;37.032;2022-09-09T07:26:56;0.40;;;0.30;;
67514;SDS011;60646;55.802;37.032;2022-09-09T07:29:22;0.98;;;0.70;;
67514;SDS011;60646;55.802;37.032;2022-09-09T07:31:49;1.30;;;0.30;;
67514;SDS011;60646;55.802;37.032;2022-09-09T07:34:21;0.20;;;0.20;;
67514;SDS011;60646;55.802;37.032;2022-09-09T07:36:47;1.33;;;0.30;;
67514;SDS011;60646;55.802;37.032;2022-09-09T07:39:15;0.55;;;0.30;;
67514;SDS011;60646;55.802;37.032;2022-09-09T07:41:47;0.45;;;0.25;;
67514;SDS011;60646;55.802;37.032;2022-09-09T07:44:17;0.35;;;0.30;;
67514;SDS011;60646;55.802;37.032;2022-09-09T07:46:49;0.38;;;0.30;;
67514;SDS011;60646;55.802;37.032;2022-09-09T07:49:19;0.30;;;0.30;;
67514;SDS011;60646;55.802;37.032;2022-09-09T07:51:46;0.63;;;0.30;;
67514;SDS011;60646;55.802;37.032;2022-09-09T07:54:15;1.05;;;0.43;;
67514;SDS011;60646;55.802;37.032;2022-09-09T07:56:46;0.50;;;0.35;;
67514;SDS011;60646;55.802;37.032;2022-09-09T07:59:13;2.83;;;0.40;;
67514;SDS011;60646;55.802;37.032;2022-09-09T08:01:45;1.75;;;0.30;;
67514;SDS011;60646;55.802;37.032;2022-09-09T08:04:17;0.32;;;0.32;;
67514;SDS011;60646;55.802;37.032;2022-09-09T08:06:47;0.40;;;0.32;;
67514;SDS011;60646;55.802;37.032;2022-09-09T08:09:17;0.80;;;0.50;;
67514;SDS011;60646;55.802;37.032;2022-09-09T08:11:46;0.40;;;0.40;;
67514;SDS011;60646;55.802;37.032;2022-09-09T08:14:13;1.45;;;0.40;;
67514;SDS011;60646;55.802;37.032;2022-09-09T08:16:41;0.35;;;0.30;;
67514;SDS011;60646;55.802;37.032;2022-09-09T08:19:10;0.55;;;0.28;;
67514;SDS011;60646;55.802;37.032;2022-09-09T08:21:38;0.50;;;0.30;;
67514;SDS011;60646;55.802;37.032;2022-09-09T08:24:06;0.52;;;0.30;;
67514;SDS011;60646;55.802;37.032;2022-09-09T08:26:35;0.35;;;0.20;;
67514;SDS011;60646;55.802;37.032;2022-09-09T08:29:03;0.32;;;0.30;;
67514;SDS011;60646;55.802;37.032;2022-09-09T08:31:32;0.20;;;0.20;;
67514;SDS011;60646;55.802;37.032;2022-09-09T08:34:01;0.30;;;0.30;;
67514;SDS011;60646;55.802;37.032;2022-09-09T08:36:33;0.52;;;0.30;;
67514;SDS011;60646;55.802;37.032;2022-09-09T08:42:21;0.63;;;0.30;;
67514;SDS011;60646;55.802;37.032;2022-09-09T08:48:13;0.22;;;0.20;;
67514;SDS011;60646;55.802;37.032;2022-09-09T08:50:55;0.95;;;0.35;;
67514;SDS011;60646;55.802;37.032;2022-09-09T08:53:29;0.32;;;0.30;;
67514;SDS011;60646;55.802;37.032;2022-09-09T08:56:22;1.67;;;0.45;;
67514;SDS011;60646;55.802;37.032;2022-09-09T08:59:07;1.23;;;0.43;;
67514;SDS011;60646;55.802;37.032;2022-09-09T09:12:56;0.25;;;0.20;;
67514;SDS011;60646;55.802;37.032;2022-09-09T09:15:25;0.82;;;0.30;;
67514;SDS011;60646;55.802;37.032;2022-09-09T09:17:55;2.83;;;0.55;;
67514;SDS011;60646;55.802;37.032;2022-09-09T09:23:22;0.80;;;0.57;;
67514;SDS011;60646;55.802;37.032;2022-09-09T09:25:52;0.32;;;0.30;;
67514;SDS011;60646;55.802;37.032;2022-09-09T09:28:24;0.30;;;0.30;;
67514;SDS011;60646;55.802;37.032;2022-09-09T09:30:57;3.65;;;0.55;;
67514;SDS011;60646;55.802;37.032;2022-09-09T09:36:08;0.43;;;0.30;;
67514;SDS011;60646;55.802;37.032;2022-09-09T09:38:39;0.30;;;0.30;;
67514;SDS011;60646;55.802;37.032;2022-09-09T09:41:05;0.30;;;0.30;;
67514;SDS011;60646;55.802;37.032;2022-09-09T09:43:33;0.77;;;0.40;;
67514;SDS011;60646;55.802;37.032;2022-09-09T09:46:03;0.40;;;0.20;;
67514;SDS011;60646;55.802;37.032;2022-09-09T09:48:30;0.38;;;0.32;;
67514;SDS011;60646;55.802;37.032;2022-09-09T09:51:03;3.25;;;0.45;;
67514;SDS011;60646;55.802;37.032;2022-09-09T09:53:37;0.28;;;0.25;;
67514;SDS011;60646;55.802;37.032;2022-09-09T09:56:06;0.55;;;0.30;;
67514;SDS011;60646;55.802;37.032;2022-09-09T09:58:53;0.90;;;0.20;;
67514;SDS011;60646;55.802;37.032;2022-09-09T10:01:30;0.30;;;0.30;;
67514;SDS011;60646;55.802;37.032;2022-09-09T10:04:16;0.20;;;0.20;;
67514;SDS011;60646;55.802;37.032;2022-09-09T10:06:56;0.30;;;0.30;;
67514;SDS011;60646;55.802;37.032;2022-09-09T10:14:34;1.23;;;0.30;;
67514;SDS011;60646;55.802;37.032;2022-09-09T10:19:38;0.40;;;0.40;;
67514;SDS011;60646;55.802;37.032;2022-09-09T10:22:28;0.20;;;0.20;;
67514;SDS011;60646;55.802;37.032;2022-09-09T10:36:18;0.55;;;0.20;;
67514;SDS011;60646;55.802;37.032;2022-09-09T10:38:57;3.13;;;0.73;;
67514;SDS011;60646;55.802;37.032;2022-09-09T10:41:40;0.88;;;0.50;;
67514;SDS011;60646;55.802;37.032;2022-09-09T10:47:30;0.20;;;0.20;;
67514;SDS011;60646;55.802;37.032;2022-09-09T10:52:54;0.70;;;0.28;;
67514;SDS011;60646;55.802;37.032;2022-09-09T10:55:42;0.63;;;0.30;;
67514;SDS011;60646;55.802;37.032;2022-09-09T10:58:13;1.13;;;0.25;;
67514;SDS011;60646;55.802;37.032;2022-09-09T11:00:44;1.20;;;0.47;;
67514;SDS011;60646;55.802;37.032;2022-09-09T11:03:18;1.20;;;0.60;;
67514;SDS011;60646;55.802;37.032;2022-09-09T11:05:56;1.75;;;0.30;;
67514;SDS011;60646;55.802;37.032;2022-09-09T11:08:30;1.50;;;0.30;;
67514;SDS011;60646;55.802;37.032;2022-09-09T11:18:46;0.32;;;0.30;;
67514;SDS011;60646;55.802;37.032;2022-09-09T11:21:23;0.30;;;0.30;;
67514;SDS011;60646;55.802;37.032;2022-09-09T11:23:56;0.52;;;0.50;;
67514;SDS011;60646;55.802;37.032;2022-09-09T11:26:36;0.25;;;0.25;;
67514;SDS011;60646;55.802;37.032;2022-09-09T11:37:11;0.30;;;0.30;;
67514;SDS011;60646;55.802;37.032;2022-09-09T11:39:56;1.05;;;0.40;;
67514;SDS011;60646;55.802;37.032;2022-09-09T11:42:35;0.70;;;0.45;;
67514;SDS011;60646;55.802;37.032;2022-09-09T11:45:35;0.40;;;0.40;;
67514;SDS011;60646;55.802;37.032;2022-09-09T11:47:55;0.60;;;0.30;;
67514;SDS011;60646;55.802;37.032;2022-09-09T11:53:03;0.45;;;0.40;;
67514;SDS011;60646;55.802;37.032;2022-09-09T11:55:34;2.25;;;0.40;;
67514;SDS011;60646;55.802;37.032;2022-09-09T11:58:03;0.65;;;0.40;;
67514;SDS011;60646;55.802;37.032;2022-09-09T12:04:00;2.50;;;0.47;;
67514;SDS011;60646;55.802;37.032;2022-09-09T12:06:08;1.20;;;0.70;;
67514;SDS011;60646;55.802;37.032;2022-09-09T12:08:37;0.43;;;0.40;;
67514;SDS011;60646;55.802;37.032;2022-09-09T12:11:08;0.93;;;0.32;;
67514;SDS011;60646;55.802;37.032;2022-09-09T12:13:34;0.68;;;0.50;;
67514;SDS011;60646;55.802;37.032;2022-09-09T12:16:01;0.52;;;0.35;;
67514;SDS011;60646;55.802;37.032;2022-09-09T12:18:49;0.40;;;0.30;;
67514;SDS011;60646;55.802;37.032;2022-09-09T12:21:24;0.50;;;0.40;;
67514;SDS011;60646;55.802;37.032;2022-09-09T12:23:53;0.40;;;0.40;;
67514;SDS011;60646;55.802;37.032;2022-09-09T12:29:01;0.95;;;0.50;;
67514;SDS011;60646;55.802;37.032;2022-09-09T12:31:55;0.80;;;0.40;;
67514;SDS011;60646;55.802;37.032;2022-09-09T12:39:49;4.35;;;2.75;;
67514;SDS011;60646;55.802;37.032;2022-09-09T12:42:20;1.23;;;0.93;;
67514;SDS011;60646;55.802;37.032;2022-09-09T12:44:55;1.40;;;0.68;;
67514;SDS011;60646;55.802;37.032;2022-09-09T12:47:43;0.93;;;0.60;;
67514;SDS011;60646;55.802;37.032;2022-09-09T12:50:19;1.23;;;0.60;;
67514;SDS011;60646;55.802;37.032;2022-09-09T12:52:48;0.63;;;0.50;;
67514;SDS011;60646;55.802;37.032;2022-09-09T12:55:18;1.30;;;0.68;;
67514;SDS011;60646;55.802;37.032;2022-09-09T12:57:47;2.28;;;0.30;;
67514;SDS011;60646;55.802;37.032;2022-09-09T13:00:18;1.30;;;0.50;;
67514;SDS011;60646;55.802;37.032;2022-09-09T13:02:49;0.98;;;0.68;;
67514;SDS011;60646;55.802;37.032;2022-09-09T13:05:24;1.23;;;0.50;;
67514;SDS011;60646;55.802;37.032;2022-09-09T13:07:50;0.85;;;0.40;;
67514;SDS011;60646;55.802;37.032;2022-09-09T13:10:21;1.30;;;0.60;;
67514;SDS011;60646;55.802;37.032;2022-09-09T13:12:52;0.77;;;0.50;;
67514;SDS011;60646;55.802;37.032;2022-09-09T13:15:22;0.80;;;0.43;;
67514;SDS011;60646;55.802;37.032;2022-09-09T13:17:53;1.77;;;0.43;;
67514;SDS011;60646;55.802;37.032;2022-09-09T13:20:21;0.60;;;0.50;;
67514;SDS011;60646;55.802;37.032;2022-09-09T13:22:49;1.33;;;0.80;;
67514;SDS011;60646;55.802;37.032;2022-09-09T13:30:34;5.82;;;3.15;;
67514;SDS011;60646;55.802;37.032;2022-09-09T13:33:18;3.83;;;1.92;;
67514;SDS011;60646;55.802;37.032;2022-09-09T13:38:19;1.15;;;0.63;;
67514;SDS011;60646;55.802;37.032;2022-09-09T13:41:20;0.65;;;0.47;;
67514;SDS011;60646;55.802;37.032;2022-09-09T13:43:46;0.43;;;0.40;;
67514;SDS011;60646;55.802;37.032;2022-09-09T13:51:38;0.90;;;0.45;;
67514;SDS011;60646;55.802;37.032;2022-09-09T13:54:06;1.55;;;0.50;;
67514;SDS011;60646;55.802;37.032;2022-09-09T13:56:36;1.30;;;0.32;;
67514;SDS011;60646;55.802;37.032;2022-09-09T13:59:04;0.30;;;0.20;;
67514;SDS011;60646;55.802;37.032;2022-09-09T14:01:31;0.30;;;0.30;;
67514;SDS011;60646;55.802;37.032;2022-09-09T14:04:00;0.65;;;0.60;;
67514;SDS011;60646;55.802;37.032;2022-09-09T14:06:26;1.38;;;0.38;;
67514;SDS011;60646;55.802;37.032;2022-09-09T14:08:52;0.80;;;0.32;;
67514;SDS011;60646;55.802;37.032;2022-09-09T14:11:20;0.45;;;0.45;;
67514;SDS011;60646;55.802;37.032;2022-09-09T14:13:47;1.73;;;0.50;;
67514;SDS011;60646;55.802;37.032;2022-09-09T14:16:15;0.57;;;0.40;;
67514;SDS011;60646;55.802;37.032;2022-09-09T14:18:45;0.80;;;0.60;;
67514;SDS011;60646;55.802;37.032;2022-09-09T14:21:11;0.55;;;0.40;;
67514;SDS011;60646;55.802;37.032;2022-09-09T14:23:37;1.73;;;0.80;;
67514;SDS011;60646;55.802;37.032;2022-09-09T14:26:07;0.70;;;0.50;;
67514;SDS011;60646;55.802;37.032;2022-09-09T14:28:34;0.85;;;0.50;;
67514;SDS011;60646;55.802;37.032;2022-09-09T14:31:02;1.30;;;0.40;;
67514;SDS011;60646;55.802;37.032;2022-09-09T14:33:29;0.80;;;0.30;;
67514;SDS011;60646;55.802;37.032;2022-09-09T14:35:59;1.80;;;0.60;;
67514;SDS011;60646;55.802;37.032;2022-09-09T14:38:30;1.05;;;0.60;;
67514;SDS011;60646;55.802;37.032;2022-09-09T14:41:04;1.63;;;0.75;;
67514;SDS011;60646;55.802;37.032;2022-09-09T14:43:55;0.57;;;0.47;;
67514;SDS011;60646;55.802;37.032;2022-09-09T14:46:21;0.95;;;0.40;;
67514;SDS011;60646;55.802;37.032;2022-09-09T14:49:07;0.90;;;0.30;;
67514;SDS011;60646;55.802;37.032;2022-09-09T14:51:33;0.63;;;0.40;;
67514;SDS011;60646;55.802;37.032;2022-09-09T14:53:59;0.90;;;0.50;;
67514;SDS011;60646;55.802;37.032;2022-09-09T14:56:26;1.83;;;0.60;;
67514;SDS011;60646;55.802;37.032;2022-09-09T14:58:55;2.10;;;0.88;;
67514;SDS011;60646;55.802;37.032;2022-09-09T15:01:22;1.75;;;0.70;;
67514;SDS011;60646;55.802;37.032;2022-09-09T15:03:50;0.90;;;0.55;;
67514;SDS011;60646;55.802;37.032;2022-09-09T15:06:17;0.85;;;0.60;;
67514;SDS011;60646;55.802;37.032;2022-09-09T15:08:45;1.75;;;0.80;;
67514;SDS011;60646;55.802;37.032;2022-09-09T15:11:11;1.52;;;0.80;;
67514;SDS011;60646;55.802;37.032;2022-09-09T15:13:38;1.65;;;0.88;;
67514;SDS011;60646;55.802;37.032;2022-09-09T15:16:24;0.68;;;0.50;;
67514;SDS011;60646;55.802;37.032;2022-09-09T15:18:52;1.70;;;0.57;;
67514;SDS011;60646;55.802;37.032;2022-09-09T15:21:23;4.45;;;0.60;;
67514;SDS011;60646;55.802;37.032;2022-09-09T15:23:52;0.75;;;0.60;;
67514;SDS011;60646;55.802;37.032;2022-09-09T15:26:18;1.30;;;0.60;;
67514;SDS011;60646;55.802;37.032;2022-09-09T15:28:46;0.60;;;0.50;;
67514;SDS011;60646;55.802;37.032;2022-09-09T15:31:16;0.68;;;0.50;;
67514;SDS011;60646;55.802;37.032;2022-09-09T15:33:48;1.85;;;0.60;;
67514;SDS011;60646;55.802;37.032;2022-09-09T15:36:31;0.93;;;0.40;;
67514;SDS011;60646;55.802;37.032;2022-09-09T15:38:59;1.15;;;0.65;;
67514;SDS011;60646;55.802;37.032;2022-09-09T15:41:26;0.60;;;0.60;;
67514;SDS011;60646;55.802;37.032;2022-09-09T15:43:54;2.05;;;1.00;;
67514;SDS011;60646;55.802;37.032;2022-09-09T15:48:55;3.42;;;1.10;;
67514;SDS011;60646;55.802;37.032;2022-09-09T15:51:24;4.40;;;1.27;;
67514;SDS011;60646;55.802;37.032;2022-09-09T15:53:54;2.35;;;1.20;;
67514;SDS011;60646;55.802;37.032;2022-09-09T15:56:21;2.03;;;1.00;;
67514;SDS011;60646;55.802;37.032;2022-09-09T15:58:51;1.77;;;0.98;;
67514;SDS011;60646;55.802;37.032;2022-09-09T16:01:17;3.70;;;1.00;;
67514;SDS011;60646;55.802;37.032;2022-09-09T16:03:45;4.57;;;1.25;;
67514;SDS011;60646;55.802;37.032;2022-09-09T16:06:13;3.72;;;1.10;;
67514;SDS011;60646;55.802;37.032;2022-09-09T16:08:44;2.47;;;1.27;;
67514;SDS011;60646;55.802;37.032;2022-09-09T16:11:12;4.93;;;1.20;;
67514;SDS011;60646;55.802;37.032;2022-09-09T16:13:41;3.75;;;1.25;;
67514;SDS011;60646;55.802;37.032;2022-09-09T16:16:09;4.22;;;1.73;;
67514;SDS011;60646;55.802;37.032;2022-09-09T16:18:38;4.57;;;1.70;;
67514;SDS011;60646;55.802;37.032;2022-09-09T16:21:06;4.70;;;1.80;;
67514;SDS011;60646;55.802;37.032;2022-09-09T16:23:36;2.78;;;1.42;;
67514;SDS011;60646;55.802;37.032;2022-09-09T16:26:13;3.78;;;1.55;;
67514;SDS011;60646;55.802;37.032;2022-09-09T16:28:49;5.93;;;1.35;;
67514;SDS011;60646;55.802;37.032;2022-09-09T16:34:11;6.85;;;2.65;;
67514;SDS011;60646;55.802;37.032;2022-09-09T16:36:40;7.20;;;2.30;;
67514;SDS011;60646;55.802;37.032;2022-09-09T16:39:08;5.00;;;2.17;;
67514;SDS011;60646;55.802;37.032;2022-09-09T16:41:39;6.57;;;2.47;;
67514;SDS011;60646;55.802;37.032;2022-09-09T16:44:06;3.53;;;2.10;;
67514;SDS011;60646;55.802;37.032;2022-09-09T16:46:37;7.45;;;2.65;;
67514;SDS011;60646;55.802;37.032;2022-09-09T16:49:05;10.38;;;2.40;;
67514;SDS011;60646;55.802;37.032;2022-09-09T16:51:38;5.63;;;2.28;;
67514;SDS011;60646;55.802;37.032;2022-09-09T16:54:10;2.72;;;1.70;;
67514;SDS011;60646;55.802;37.032;2022-09-09T16:56:38;8.02;;;2.83;;
67514;SDS011;60646;55.802;37.032;2022-09-09T16:59:13;5.38;;;2.25;;
67514;SDS011;60646;55.802;37.032;2022-09-09T17:01:42;9.63;;;4.50;;
67514;SDS011;60646;55.802;37.032;2022-09-09T17:04:12;15.15;;;6.65;;
67514;SDS011;60646;55.802;37.032;2022-09-09T17:07:00;13.75;;;6.97;;
67514;SDS011;60646;55.802;37.032;2022-09-09T17:09:46;10.60;;;5.30;;
67514;SDS011;60646;55.802;37.032;2022-09-09T17:12:15;11.48;;;5.22;;
67514;SDS011;60646;55.802;37.032;2022-09-09T17:14:44;10.05;;;4.53;;
67514;SDS011;60646;55.802;37.032;2022-09-09T17:17:12;11.35;;;4.90;;